sensor_id;sensor_type;location;lat;lon;timestamp;pressure;altitude;pressure_sealevel;temperature;humidity
32933;BME280;19444;50.518;10.870;2024-03-22T00:00:42;97139.78;;;3.54;100.00
32933;BME280;19444;50.518;10.870;2024-03-22T00:03:38;97135.53;;;3.53;100.00
32933;BME280;19444;50.518;10.870;2024-03-22T00:06:34;97139.81;;;3.81;100.00
32933;BME280;19444;50.518;10.870;2024-03-22T00:09:30;97142.44;;;3.76;100.00
32933;BME280;19444;50.518;10.870;2024-03-22T00:12:26;97138.66;;;3.71;100.00
32933;BME280;19444;50.518;10.870;2024-03-22T00:15:22;97142.53;;;3.64;100.00
32933;BME280;19444;50.518;10.870;2024-03-22T00:18:18;97137.78;;;3.88;100.00
32933;BME280;19444;50.518;10.870;2024-03-22T00:21:14;97132.56;;;3.71;100.00
32933;BME280;19444;50.518;10.870;2024-03-22T00:24:10;97131.84;;;3.76;100.00
32933;BME280;19444;50.518;10.870;2024-03-22T00:27:06;97129.44;;;3.52;100.00
32933;BME280;19444;50.518;10.870;2024-03-22T00:30:01;97128.63;;;3.52;100.00
32933;BME280;19444;50.518;10.870;2024-03-22T00:32:57;97125.06;;;3.41;100.00
32933;BME280;19444;50.518;10.870;2024-03-22T00:35:53;97120.84;;;3.23;100.00
32933;BME280;19444;50.518;10.870;2024-03-22T00:38:49;97128.06;;;3.50;100.00
32933;BME280;19444;50.518;10.870;2024-03-22T00:41:45;97120.75;;;3.57;100.00
32933;BME280;19444;50.518;10.870;2024-03-22T00:44:41;97118.91;;;3.57;100.00
32933;BME280;19444;50.518;10.870;2024-03-22T00:47:37;97117.09;;;3.63;100.00
32933;BME280;19444;50.518;10.870;2024-03-22T00:50:33;97119.84;;;3.73;100.00
32933;BME280;19444;50.518;10.870;2024-03-22T00:53:29;97121.03;;;3.60;100.00
32933;BME280;19444;50.518;10.870;2024-03-22T00:56:25;97111.47;;;3.37;100.00
32933;BME280;19444;50.518;10.870;2024-03-22T00:59:21;97108.91;;;3.42;100.00
32933;BME280;19444;50.518;10.870;2024-03-22T01:02:17;97103.91;;;3.46;100.00
32933;BME280;19444;50.518;10.870;2024-03-22T01:05:13;97099.00;;;3.33;100.00
32933;BME280;19444;50.518;10.870;2024-03-22T01:08:10;97096.63;;;2.93;100.00
32933;BME280;19444;50.518;10.870;2024-03-22T01:11:06;97101.31;;;3.07;100.00
32933;BME280;19444;50.518;10.870;2024-03-22T01:14:02;97095.75;;;3.09;100.00
32933;BME280;19444;50.518;10.870;2024-03-22T01:16:58;97095.88;;;2.97;100.00
32933;BME280;19444;50.518;10.870;2024-03-22T01:19:54;97089.19;;;3.11;100.00
32933;BME280;19444;50.518;10.870;2024-03-22T01:22:51;97083.53;;;3.25;100.00
32933;BME280;19444;50.518;10.870;2024-03-22T01:25:47;97087.03;;;3.30;100.00
32933;BME280;19444;50.518;10.870;2024-03-22T01:28:43;97081.06;;;3.40;100.00
32933;BME280;19444;50.518;10.870;2024-03-22T01:31:39;97069.97;;;3.21;100.00
32933;BME280;19444;50.518;10.870;2024-03-22T01:34:35;97074.53;;;3.48;100.00
32933;BME280;19444;50.518;10.870;2024-03-22T01:37:31;97075.88;;;2.68;100.00
32933;BME280;19444;50.518;10.870;2024-03-22T01:40:26;97087.03;;;2.53;100.00
32933;BME280;19444;50.518;10.870;2024-03-22T01:43:22;97073.38;;;2.78;100.00
32933;BME280;19444;50.518;10.870;2024-03-22T01:46:18;97073.13;;;2.79;100.00
32933;BME280;19444;50.518;10.870;2024-03-22T01:49:15;97071.03;;;2.81;100.00
32933;BME280;19444;50.518;10.870;2024-03-22T01:52:12;97071.41;;;2.90;100.00
32933;BME280;19444;50.518;10.870;2024-03-22T01:55:08;97072.56;;;2.77;100.00
32933;BME280;19444;50.518;10.870;2024-03-22T01:58:04;97070.88;;;2.88;100.00
32933;BME280;19444;50.518;10.870;2024-03-22T02:01:01;97060.75;;;2.30;100.00
32933;BME280;19444;50.518;10.870;2024-03-22T02:03:58;97058.09;;;2.46;100.00
32933;BME280;19444;50.518;10.870;2024-03-22T02:06:54;97058.25;;;2.56;100.00
32933;BME280;19444;50.518;10.870;2024-03-22T02:09:49;97060.50;;;2.48;100.00
32933;BME280;19444;50.518;10.870;2024-03-22T02:12:45;97054.88;;;2.61;100.00
32933;BME280;19444;50.518;10.870;2024-03-22T02:15:41;97042.94;;;2.59;100.00
32933;BME280;19444;50.518;10.870;2024-03-22T02:18:37;97047.19;;;2.60;100.00
32933;BME280;19444;50.518;10.870;2024-03-22T02:21:34;97045.59;;;2.59;100.00
32933;BME280;19444;50.518;10.870;2024-03-22T02:24:29;97041.81;;;2.38;100.00
32933;BME280;19444;50.518;10.870;2024-03-22T02:27:26;97036.25;;;2.56;100.00
32933;BME280;19444;50.518;10.870;2024-03-22T02:30:21;97033.22;;;2.64;100.00
32933;BME280;19444;50.518;10.870;2024-03-22T02:33:17;97039.53;;;2.63;100.00
32933;BME280;19444;50.518;10.870;2024-03-22T02:36:14;97037.09;;;2.56;100.00
32933;BME280;19444;50.518;10.870;2024-03-22T02:39:10;97038.59;;;2.52;100.00
32933;BME280;19444;50.518;10.870;2024-03-22T02:42:06;97034.50;;;3.71;100.00
32933;BME280;19444;50.518;10.870;2024-03-22T02:45:03;97033.59;;;2.73;100.00
32933;BME280;19444;50.518;10.870;2024-03-22T02:47:59;97031.34;;;2.65;100.00
32933;BME280;19444;50.518;10.870;2024-03-22T02:50:55;97020.50;;;2.44;100.00
32933;BME280;19444;50.518;10.870;2024-03-22T02:53:51;97021.78;;;2.42;100.00
32933;BME280;19444;50.518;10.870;2024-03-22T02:56:47;97023.63;;;2.24;100.00
32933;BME280;19444;50.518;10.870;2024-03-22T02:59:43;97019.38;;;2.57;100.00
32933;BME280;19444;50.518;10.870;2024-03-22T03:02:39;97020.56;;;2.66;100.00
32933;BME280;19444;50.518;10.870;2024-03-22T03:05:35;97029.53;;;2.65;100.00
32933;BME280;19444;50.518;10.870;2024-03-22T03:08:31;97019.25;;;2.69;100.00
32933;BME280;19444;50.518;10.870;2024-03-22T03:11:27;97019.66;;;2.77;100.00
32933;BME280;19444;50.518;10.870;2024-03-22T03:14:23;97013.22;;;2.73;100.00
32933;BME280;19444;50.518;10.870;2024-03-22T03:17:19;97010.16;;;2.43;100.00
32933;BME280;19444;50.518;10.870;2024-03-22T03:20:15;97006.56;;;2.49;100.00
32933;BME280;19444;50.518;10.870;2024-03-22T03:23:11;97012.66;;;2.33;100.00
32933;BME280;19444;50.518;10.870;2024-03-22T03:26:07;97009.78;;;2.34;100.00
32933;BME280;19444;50.518;10.870;2024-03-22T03:29:02;97014.50;;;2.32;100.00
32933;BME280;19444;50.518;10.870;2024-03-22T03:31:58;97010.94;;;2.60;100.00
32933;BME280;19444;50.518;10.870;2024-03-22T03:34:55;97005.81;;;2.53;100.00
32933;BME280;19444;50.518;10.870;2024-03-22T03:37:51;97013.44;;;2.50;100.00
32933;BME280;19444;50.518;10.870;2024-03-22T03:40:46;97007.63;;;2.14;100.00
32933;BME280;19444;50.518;10.870;2024-03-22T03:43:42;97007.63;;;2.14;100.00
32933;BME280;19444;50.518;10.870;2024-03-22T03:46:38;97004.59;;;2.06;100.00
32933;BME280;19444;50.518;10.870;2024-03-22T03:49:34;96999.78;;;2.03;100.00
32933;BME280;19444;50.518;10.870;2024-03-22T03:52:30;96994.72;;;2.01;100.00
32933;BME280;19444;50.518;10.870;2024-03-22T03:55:26;96986.81;;;2.56;100.00
32933;BME280;19444;50.518;10.870;2024-03-22T03:58:22;96979.09;;;2.55;100.00
32933;BME280;19444;50.518;10.870;2024-03-22T04:01:18;96972.47;;;2.52;100.00
32933;BME280;19444;50.518;10.870;2024-03-22T04:04:14;96970.47;;;2.04;100.00
32933;BME280;19444;50.518;10.870;2024-03-22T04:07:10;96971.81;;;2.23;100.00
32933;BME280;19444;50.518;10.870;2024-03-22T04:10:06;96968.53;;;1.99;100.00
32933;BME280;19444;50.518;10.870;2024-03-22T04:13:02;96968.22;;;1.79;100.00
32933;BME280;19444;50.518;10.870;2024-03-22T04:15:59;96960.03;;;1.97;100.00
32933;BME280;19444;50.518;10.870;2024-03-22T04:18:55;96964.13;;;1.88;100.00
32933;BME280;19444;50.518;10.870;2024-03-22T04:21:51;96957.91;;;1.94;100.00
32933;BME280;19444;50.518;10.870;2024-03-22T04:24:47;96958.03;;;1.88;100.00
32933;BME280;19444;50.518;10.870;2024-03-22T04:27:43;96953.16;;;2.13;100.00
32933;BME280;19444;50.518;10.870;2024-03-22T04:30:39;96955.41;;;1.71;100.00
32933;BME280;19444;50.518;10.870;2024-03-22T04:33:36;96953.63;;;1.60;100.00
32933;BME280;19444;50.518;10.870;2024-03-22T04:36:32;96955.00;;;1.96;100.00
32933;BME280;19444;50.518;10.870;2024-03-22T04:39:28;96963.47;;;2.15;100.00
32933;BME280;19444;50.518;10.870;2024-03-22T04:42:24;96959.94;;;2.09;100.00
32933;BME280;19444;50.518;10.870;2024-03-22T04:45:20;96958.38;;;1.75;100.00
32933;BME280;19444;50.518;10.870;2024-03-22T04:48:21;96952.84;;;1.93;100.00
32933;BME280;19444;50.518;10.870;2024-03-22T04:51:17;96959.28;;;2.19;100.00
32933;BME280;19444;50.518;10.870;2024-03-22T04:54:13;96951.81;;;2.11;100.00
32933;BME280;19444;50.518;10.870;2024-03-22T04:57:09;96953.16;;;2.13;100.00
32933;BME280;19444;50.518;10.870;2024-03-22T05:00:05;96946.88;;;2.19;100.00
32933;BME280;19444;50.518;10.870;2024-03-22T05:03:04;96939.19;;;2.18;100.00
32933;BME280;19444;50.518;10.870;2024-03-22T05:06:00;96938.59;;;1.60;100.00
32933;BME280;19444;50.518;10.870;2024-03-22T05:08:59;96935.41;;;2.31;100.00
32933;BME280;19444;50.518;10.870;2024-03-22T05:11:54;96935.03;;;2.22;100.00
32933;BME280;19444;50.518;10.870;2024-03-22T05:14:50;96939.03;;;2.24;100.00
32933;BME280;19444;50.518;10.870;2024-03-22T05:17:47;96930.59;;;2.27;100.00
32933;BME280;19444;50.518;10.870;2024-03-22T05:20:43;96921.19;;;1.98;100.00
32933;BME280;19444;50.518;10.870;2024-03-22T05:23:39;96916.72;;;2.37;100.00
32933;BME280;19444;50.518;10.870;2024-03-22T05:26:35;96920.78;;;2.45;100.00
32933;BME280;19444;50.518;10.870;2024-03-22T05:29:32;96921.78;;;1.83;100.00
32933;BME280;19444;50.518;10.870;2024-03-22T05:32:28;96913.41;;;2.08;100.00
32933;BME280;19444;50.518;10.870;2024-03-22T05:35:24;96916.47;;;2.82;100.00
32933;BME280;19444;50.518;10.870;2024-03-22T05:38:20;96895.69;;;2.69;100.00
32933;BME280;19444;50.518;10.870;2024-03-22T05:41:16;96883.56;;;2.73;100.00
32933;BME280;19444;50.518;10.870;2024-03-22T05:44:12;96890.25;;;2.37;100.00
32933;BME280;19444;50.518;10.870;2024-03-22T05:47:08;96882.63;;;2.19;100.00
32933;BME280;19444;50.518;10.870;2024-03-22T05:50:04;96896.81;;;2.51;100.00
32933;BME280;19444;50.518;10.870;2024-03-22T05:53:04;96887.69;;;2.20;100.00
32933;BME280;19444;50.518;10.870;2024-03-22T05:55:59;96893.59;;;2.71;100.00
32933;BME280;19444;50.518;10.870;2024-03-22T05:58:55;96894.66;;;2.97;100.00
32933;BME280;19444;50.518;10.870;2024-03-22T06:01:51;96890.41;;;2.69;100.00
32933;BME280;19444;50.518;10.870;2024-03-22T06:04:47;96879.41;;;4.06;100.00
32933;BME280;19444;50.518;10.870;2024-03-22T06:07:44;96880.09;;;4.38;100.00
32933;BME280;19444;50.518;10.870;2024-03-22T06:10:41;96874.78;;;3.91;100.00
32933;BME280;19444;50.518;10.870;2024-03-22T06:13:37;96873.13;;;4.22;100.00
32933;BME280;19444;50.518;10.870;2024-03-22T06:16:34;96870.34;;;3.96;100.00
32933;BME280;19444;50.518;10.870;2024-03-22T06:19:30;96865.09;;;4.07;100.00
32933;BME280;19444;50.518;10.870;2024-03-22T06:22:26;96870.81;;;3.88;100.00
32933;BME280;19444;50.518;10.870;2024-03-22T06:25:22;96866.75;;;3.43;100.00
32933;BME280;19444;50.518;10.870;2024-03-22T06:28:18;96867.00;;;3.74;100.00
32933;BME280;19444;50.518;10.870;2024-03-22T06:31:14;96857.28;;;3.85;100.00
32933;BME280;19444;50.518;10.870;2024-03-22T06:34:10;96858.72;;;4.03;100.00
32933;BME280;19444;50.518;10.870;2024-03-22T06:37:06;96865.50;;;4.31;100.00
32933;BME280;19444;50.518;10.870;2024-03-22T06:40:02;96859.78;;;4.07;100.00
32933;BME280;19444;50.518;10.870;2024-03-22T06:42:58;96858.41;;;3.99;100.00
32933;BME280;19444;50.518;10.870;2024-03-22T06:45:54;96866.75;;;3.76;100.00
32933;BME280;19444;50.518;10.870;2024-03-22T06:48:52;96855.41;;;4.33;100.00
32933;BME280;19444;50.518;10.870;2024-03-22T06:51:48;96845.41;;;4.55;100.00
32933;BME280;19444;50.518;10.870;2024-03-22T06:54:44;96841.50;;;4.83;100.00
32933;BME280;19444;50.518;10.870;2024-03-22T06:57:40;96837.25;;;4.82;100.00
32933;BME280;19444;50.518;10.870;2024-03-22T07:00:36;96841.47;;;4.63;100.00
32933;BME280;19444;50.518;10.870;2024-03-22T07:03:32;96845.72;;;4.64;100.00
32933;BME280;19444;50.518;10.870;2024-03-22T07:06:28;96842.59;;;4.87;100.00
32933;BME280;19444;50.518;10.870;2024-03-22T07:09:24;96851.97;;;5.30;100.00
32933;BME280;19444;50.518;10.870;2024-03-22T07:12:20;96848.50;;;5.50;100.00
32933;BME280;19444;50.518;10.870;2024-03-22T07:15:16;96848.69;;;4.93;100.00
32933;BME280;19444;50.518;10.870;2024-03-22T07:18:12;96844.00;;;5.30;100.00
32933;BME280;19444;50.518;10.870;2024-03-22T07:21:08;96851.69;;;5.47;100.00
32933;BME280;19444;50.518;10.870;2024-03-22T07:24:04;96847.44;;;5.46;100.00
32933;BME280;19444;50.518;10.870;2024-03-22T07:26:59;96855.69;;;5.34;100.00
32933;BME280;19444;50.518;10.870;2024-03-22T07:29:55;96851.44;;;5.54;100.00
32933;BME280;19444;50.518;10.870;2024-03-22T07:32:51;96849.59;;;5.49;100.00
32933;BME280;19444;50.518;10.870;2024-03-22T07:35:47;96849.56;;;5.59;100.00
32933;BME280;19444;50.518;10.870;2024-03-22T07:38:43;96849.28;;;5.86;100.00
32933;BME280;19444;50.518;10.870;2024-03-22T07:41:39;96848.22;;;5.97;100.00
32933;BME280;19444;50.518;10.870;2024-03-22T07:44:35;96833.56;;;6.15;100.00
32933;BME280;19444;50.518;10.870;2024-03-22T07:47:31;96842.25;;;6.36;100.00
32933;BME280;19444;50.518;10.870;2024-03-22T07:50:27;96830.72;;;6.56;100.00
32933;BME280;19444;50.518;10.870;2024-03-22T07:53:24;96834.41;;;6.65;100.00
32933;BME280;19444;50.518;10.870;2024-03-22T07:56:19;96834.13;;;6.72;100.00
32933;BME280;19444;50.518;10.870;2024-03-22T07:59:15;96823.25;;;6.63;100.00
32933;BME280;19444;50.518;10.870;2024-03-22T08:02:11;96819.28;;;6.61;100.00
32933;BME280;19444;50.518;10.870;2024-03-22T08:05:07;96830.16;;;6.69;100.00
32933;BME280;19444;50.518;10.870;2024-03-22T08:08:04;96826.06;;;6.82;100.00
32933;BME280;19444;50.518;10.870;2024-03-22T08:11:00;96821.47;;;6.93;100.00
32933;BME280;19444;50.518;10.870;2024-03-22T08:13:55;96820.88;;;7.06;100.00
32933;BME280;19444;50.518;10.870;2024-03-22T08:16:57;96812.22;;;7.24;100.00
32933;BME280;19444;50.518;10.870;2024-03-22T08:19:53;96808.50;;;7.20;100.00
32933;BME280;19444;50.518;10.870;2024-03-22T08:22:50;96814.44;;;8.28;100.00
32933;BME280;19444;50.518;10.870;2024-03-22T08:25:46;96817.88;;;7.52;100.00
32933;BME280;19444;50.518;10.870;2024-03-22T08:28:42;96801.19;;;7.36;100.00
32933;BME280;19444;50.518;10.870;2024-03-22T08:31:38;96795.66;;;7.27;100.00
32933;BME280;19444;50.518;10.870;2024-03-22T08:34:34;96806.41;;;7.51;100.00
32933;BME280;19444;50.518;10.870;2024-03-22T08:37:31;96794.59;;;7.28;100.00
32933;BME280;19444;50.518;10.870;2024-03-22T08:40:27;96801.44;;;7.39;100.00
32933;BME280;19444;50.518;10.870;2024-03-22T08:43:23;96786.38;;;7.25;100.00
32933;BME280;19444;50.518;10.870;2024-03-22T08:46:21;96792.44;;;7.30;100.00
32933;BME280;19444;50.518;10.870;2024-03-22T08:49:19;96784.63;;;7.68;100.00
32933;BME280;19444;50.518;10.870;2024-03-22T08:52:15;96785.19;;;7.36;100.00
32933;BME280;19444;50.518;10.870;2024-03-22T08:55:11;96778.78;;;7.66;100.00
32933;BME280;19444;50.518;10.870;2024-03-22T08:58:07;96774.16;;;7.48;100.00
32933;BME280;19444;50.518;10.870;2024-03-22T09:01:03;96764.34;;;8.44;100.00
32933;BME280;19444;50.518;10.870;2024-03-22T09:03:59;96775.69;;;7.83;100.00
32933;BME280;19444;50.518;10.870;2024-03-22T09:06:55;96769.59;;;7.77;100.00
32933;BME280;19444;50.518;10.870;2024-03-22T09:09:51;96761.38;;;7.74;100.00
32933;BME280;19444;50.518;10.870;2024-03-22T09:12:47;96764.06;;;7.97;100.00
32933;BME280;19444;50.518;10.870;2024-03-22T09:15:43;96766.78;;;8.16;100.00
32933;BME280;19444;50.518;10.870;2024-03-22T09:18:38;96761.00;;;8.09;100.00
32933;BME280;19444;50.518;10.870;2024-03-22T09:21:34;96755.78;;;7.99;100.00
32933;BME280;19444;50.518;10.870;2024-03-22T09:24:30;96747.09;;;8.31;100.00
32933;BME280;19444;50.518;10.870;2024-03-22T09:27:26;96740.47;;;8.28;100.00
32933;BME280;19444;50.518;10.870;2024-03-22T09:30:22;96743.19;;;8.47;100.00
32933;BME280;19444;50.518;10.870;2024-03-22T09:33:18;96745.16;;;8.61;100.00
32933;BME280;19444;50.518;10.870;2024-03-22T09:36:14;96742.72;;;8.64;100.00
32933;BME280;19444;50.518;10.870;2024-03-22T09:39:10;96737.34;;;9.34;100.00
32933;BME280;19444;50.518;10.870;2024-03-22T09:42:08;96742.53;;;9.12;100.00
32933;BME280;19444;50.518;10.870;2024-03-22T09:45:08;96730.19;;;9.62;100.00
32933;BME280;19444;50.518;10.870;2024-03-22T09:48:06;96726.72;;;9.16;100.00
32933;BME280;19444;50.518;10.870;2024-03-22T09:51:02;96720.59;;;8.77;100.00
32933;BME280;19444;50.518;10.870;2024-03-22T09:53:58;96725.25;;;9.04;100.00
32933;BME280;19444;50.518;10.870;2024-03-22T09:56:56;96715.53;;;9.27;100.00
32933;BME280;19444;50.518;10.870;2024-03-22T09:59:53;96705.88;;;9.59;100.00
32933;BME280;19444;50.518;10.870;2024-03-22T10:02:49;96701.53;;;10.18;100.00
32933;BME280;19444;50.518;10.870;2024-03-22T10:05:45;96705.41;;;9.84;100.00
32933;BME280;19444;50.518;10.870;2024-03-22T10:08:42;96687.44;;;10.12;100.00
32933;BME280;19444;50.518;10.870;2024-03-22T10:11:38;96686.56;;;10.03;100.00
32933;BME280;19444;50.518;10.870;2024-03-22T10:14:33;96686.78;;;10.07;100.00
32933;BME280;19444;50.518;10.870;2024-03-22T10:17:31;96677.06;;;10.24;100.00
32933;BME280;19444;50.518;10.870;2024-03-22T10:20:26;96682.78;;;10.18;100.00
32933;BME280;19444;50.518;10.870;2024-03-22T10:23:23;96671.63;;;10.52;100.00
32933;BME280;19444;50.518;10.870;2024-03-22T10:26:21;96672.91;;;10.54;100.00
32933;BME280;19444;50.518;10.870;2024-03-22T10:29:17;96661.81;;;10.47;100.00
32933;BME280;19444;50.518;10.870;2024-03-22T10:32:16;96660.78;;;10.35;100.00
32933;BME280;19444;50.518;10.870;2024-03-22T10:35:15;96655.66;;;10.47;100.00
32933;BME280;19444;50.518;10.870;2024-03-22T10:38:12;96647.13;;;10.45;100.00
32933;BME280;19444;50.518;10.870;2024-03-22T10:41:08;96653.56;;;10.80;100.00
32933;BME280;19444;50.518;10.870;2024-03-22T10:44:04;96647.75;;;10.64;100.00
32933;BME280;19444;50.518;10.870;2024-03-22T10:47:01;96640.34;;;10.61;100.00
32933;BME280;19444;50.518;10.870;2024-03-22T10:50:07;96641.91;;;10.85;100.00
32933;BME280;19444;50.518;10.870;2024-03-22T10:53:09;96642.53;;;10.81;100.00
32933;BME280;19444;50.518;10.870;2024-03-22T10:56:06;96637.22;;;10.68;100.00
32933;BME280;19444;50.518;10.870;2024-03-22T10:59:04;96633.44;;;10.69;100.00
32933;BME280;19444;50.518;10.870;2024-03-22T11:02:06;96628.34;;;10.81;100.00
32933;BME280;19444;50.518;10.870;2024-03-22T11:05:04;96627.56;;;11.11;100.00
32933;BME280;19444;50.518;10.870;2024-03-22T11:08:02;96622.41;;;10.93;100.00
32933;BME280;19444;50.518;10.870;2024-03-22T11:11:10;96625.72;;;10.45;100.00
32933;BME280;19444;50.518;10.870;2024-03-22T11:14:06;96619.63;;;10.75;100.00
32933;BME280;19444;50.518;10.870;2024-03-22T11:17:02;96614.47;;;10.88;100.00
32933;BME280;19444;50.518;10.870;2024-03-22T11:19:58;96597.50;;;10.92;100.00
32933;BME280;19444;50.518;10.870;2024-03-22T11:22:54;96609.13;;;10.88;100.00
32933;BME280;19444;50.518;10.870;2024-03-22T11:25:51;96598.13;;;10.89;100.00
32933;BME280;19444;50.518;10.870;2024-03-22T11:28:47;96592.69;;;11.11;100.00
32933;BME280;19444;50.518;10.870;2024-03-22T11:31:43;96595.69;;;11.50;100.00
32933;BME280;19444;50.518;10.870;2024-03-22T11:34:39;96586.88;;;11.09;100.00
32933;BME280;19444;50.518;10.870;2024-03-22T11:37:41;96582.41;;;11.36;100.00
32933;BME280;19444;50.518;10.870;2024-03-22T11:40:37;96582.50;;;11.22;100.00
32933;BME280;19444;50.518;10.870;2024-03-22T11:43:34;96566.66;;;11.52;100.00
32933;BME280;19444;50.518;10.870;2024-03-22T11:46:30;96565.75;;;11.65;100.00
32933;BME280;19444;50.518;10.870;2024-03-22T11:49:26;96552.56;;;11.86;100.00
32933;BME280;19444;50.518;10.870;2024-03-22T11:52:25;96547.97;;;12.56;100.00
32933;BME280;19444;50.518;10.870;2024-03-22T11:55:22;96540.25;;;12.37;100.00
32933;BME280;19444;50.518;10.870;2024-03-22T11:58:19;96543.06;;;12.58;100.00
32933;BME280;19444;50.518;10.870;2024-03-22T12:01:15;96537.88;;;12.35;100.00
32933;BME280;19444;50.518;10.870;2024-03-22T12:04:12;96536.78;;;12.19;100.00
32933;BME280;19444;50.518;10.870;2024-03-22T12:07:15;96528.69;;;12.53;100.00
32933;BME280;19444;50.518;10.870;2024-03-22T12:10:11;96528.78;;;12.83;100.00
32933;BME280;19444;50.518;10.870;2024-03-22T12:13:07;96519.84;;;12.44;100.00
32933;BME280;19444;50.518;10.870;2024-03-22T12:16:04;96517.59;;;12.64;100.00
32933;BME280;19444;50.518;10.870;2024-03-22T12:19:00;96511.63;;;12.49;100.00
32933;BME280;19444;50.518;10.870;2024-03-22T12:21:56;96503.47;;;12.84;100.00
32933;BME280;19444;50.518;10.870;2024-03-22T12:24:53;96507.47;;;12.61;100.00
32933;BME280;19444;50.518;10.870;2024-03-22T12:27:48;96503.53;;;12.49;100.00
32933;BME280;19444;50.518;10.870;2024-03-22T12:30:45;96494.34;;;12.59;100.00
32933;BME280;19444;50.518;10.870;2024-03-22T12:33:40;96498.88;;;12.85;100.00
32933;BME280;19444;50.518;10.870;2024-03-22T12:36:36;96486.09;;;12.73;100.00
32933;BME280;19444;50.518;10.870;2024-03-22T12:39:32;96483.22;;;13.25;100.00
32933;BME280;19444;50.518;10.870;2024-03-22T12:42:28;96476.34;;;12.98;100.00
32933;BME280;19444;50.518;10.870;2024-03-22T12:45:24;96478.75;;;12.99;100.00
32933;BME280;19444;50.518;10.870;2024-03-22T12:48:20;96467.34;;;12.94;100.00
32933;BME280;19444;50.518;10.870;2024-03-22T12:51:16;96462.44;;;13.34;100.00
32933;BME280;19444;50.518;10.870;2024-03-22T12:54:13;96463.50;;;13.42;100.00
32933;BME280;19444;50.518;10.870;2024-03-22T12:57:10;96455.13;;;13.64;100.00
32933;BME280;19444;50.518;10.870;2024-03-22T13:00:07;96453.06;;;13.40;100.00
32933;BME280;19444;50.518;10.870;2024-03-22T13:03:08;96447.91;;;13.56;100.00
32933;BME280;19444;50.518;10.870;2024-03-22T13:06:06;96437.16;;;13.89;100.00
32933;BME280;19444;50.518;10.870;2024-03-22T13:09:02;96429.06;;;14.10;100.00
32933;BME280;19444;50.518;10.870;2024-03-22T13:12:00;96422.78;;;13.85;100.00
32933;BME280;19444;50.518;10.870;2024-03-22T13:14:56;96429.50;;;13.79;100.00
32933;BME280;19444;50.518;10.870;2024-03-22T13:17:52;96418.47;;;13.72;100.00
32933;BME280;19444;50.518;10.870;2024-03-22T13:20:50;96414.66;;;13.73;100.00
32933;BME280;19444;50.518;10.870;2024-03-22T13:23:46;96410.50;;;13.96;100.00
32933;BME280;19444;50.518;10.870;2024-03-22T13:26:42;96405.72;;;13.81;100.00
32933;BME280;19444;50.518;10.870;2024-03-22T13:29:39;96389.38;;;14.43;100.00
32933;BME280;19444;50.518;10.870;2024-03-22T13:32:38;96387.00;;;14.17;100.00
32933;BME280;19444;50.518;10.870;2024-03-22T13:35:34;96375.97;;;14.80;100.00
32933;BME280;19444;50.518;10.870;2024-03-22T13:38:30;96367.09;;;14.67;100.00
32933;BME280;19444;50.518;10.870;2024-03-22T13:41:26;96366.69;;;14.44;100.00
32933;BME280;19444;50.518;10.870;2024-03-22T13:44:22;96361.63;;;14.31;100.00
32933;BME280;19444;50.518;10.870;2024-03-22T13:47:19;96362.44;;;14.43;100.00
32933;BME280;19444;50.518;10.870;2024-03-22T13:50:15;96360.13;;;14.54;100.00
32933;BME280;19444;50.518;10.870;2024-03-22T13:53:11;96366.53;;;14.49;100.00
32933;BME280;19444;50.518;10.870;2024-03-22T13:56:07;96359.22;;;14.05;100.00
32933;BME280;19444;50.518;10.870;2024-03-22T13:59:03;96352.22;;;14.37;100.00
32933;BME280;19444;50.518;10.870;2024-03-22T14:02:01;96355.69;;;14.37;100.00
32933;BME280;19444;50.518;10.870;2024-03-22T14:04:56;96352.66;;;14.39;100.00
32933;BME280;19444;50.518;10.870;2024-03-22T14:07:52;96343.03;;;14.05;100.00
32933;BME280;19444;50.518;10.870;2024-03-22T14:10:48;96337.44;;;14.55;100.00
32933;BME280;19444;50.518;10.870;2024-03-22T14:13:44;96340.06;;;14.43;100.00
32933;BME280;19444;50.518;10.870;2024-03-22T14:16:41;96320.75;;;14.41;100.00
32933;BME280;19444;50.518;10.870;2024-03-22T14:19:36;96329.31;;;14.92;100.00
32933;BME280;19444;50.518;10.870;2024-03-22T14:22:32;96311.81;;;14.73;100.00
32933;BME280;19444;50.518;10.870;2024-03-22T14:25:28;96306.28;;;14.94;100.00
32933;BME280;19444;50.518;10.870;2024-03-22T14:28:24;96311.19;;;15.04;100.00
32933;BME280;19444;50.518;10.870;2024-03-22T14:31:20;96312.59;;;15.26;100.00
32933;BME280;19444;50.518;10.870;2024-03-22T14:34:16;96315.56;;;15.21;100.00
32933;BME280;19444;50.518;10.870;2024-03-22T14:37:13;96309.03;;;16.22;100.00
32933;BME280;19444;50.518;10.870;2024-03-22T14:40:09;96308.50;;;16.16;100.00
32933;BME280;19444;50.518;10.870;2024-03-22T14:43:06;96295.59;;;16.41;100.00
32933;BME280;19444;50.518;10.870;2024-03-22T14:46:02;96289.16;;;16.14;100.00
32933;BME280;19444;50.518;10.870;2024-03-22T14:48:58;96278.88;;;15.60;100.00
32933;BME280;19444;50.518;10.870;2024-03-22T14:51:55;96290.13;;;15.22;100.00
32933;BME280;19444;50.518;10.870;2024-03-22T14:54:53;96285.03;;;15.33;100.00
32933;BME280;19444;50.518;10.870;2024-03-22T14:57:49;96274.25;;;14.68;100.00
32933;BME280;19444;50.518;10.870;2024-03-22T15:00:56;96288.16;;;14.95;100.00
32933;BME280;19444;50.518;10.870;2024-03-22T15:03:52;96279.19;;;14.78;100.00
32933;BME280;19444;50.518;10.870;2024-03-22T15:06:48;96282.34;;;14.68;100.00
32933;BME280;19444;50.518;10.870;2024-03-22T15:09:46;96278.66;;;14.73;100.00
32933;BME280;19444;50.518;10.870;2024-03-22T15:12:42;96275.16;;;14.85;100.00
32933;BME280;19444;50.518;10.870;2024-03-22T15:15:38;96272.94;;;14.50;100.00